Time;durP1;ratioP1;P1;durP2;ratioP2;P2;SDS_P1;SDS_P2;PMS_P1;PMS_P2;Temp;Humidity;BMP_temperature;BMP_pressure;BME280_temperature;BME280_humidity;BME280_pressure;Samples;Min_cycle;Max_cycle;Signal;HPM_P1;HPM_P2
2023/06/04 00:01:09;;;;;;;2.00;0.40;;;13.50;77.80;;;;;;4892555;29;20036;-70
2023/06/04 00:03:35;;;;;;;2.35;0.50;;;13.50;77.90;;;;;;4900063;29;20047;-70
2023/06/04 00:06:02;;;;;;;0.80;0.45;;;13.40;78.10;;;;;;4883456;29;20038;-70
2023/06/04 00:08:28;;;;;;;2.88;0.40;;;13.40;78.40;;;;;;4900351;29;20047;-70
2023/06/04 00:10:54;;;;;;;3.30;0.55;;;13.40;78.80;;;;;;4897566;29;20027;-70
2023/06/04 00:13:21;;;;;;;1.88;0.60;;;13.30;79.10;;;;;;4905806;29;20375;-70
2023/06/04 00:15:47;;;;;;;1.20;0.50;;;13.40;79.90;;;;;;4902682;29;20114;-70
2023/06/04 00:18:13;;;;;;;1.83;0.50;;;13.30;79.50;;;;;;4902108;29;20047;-70
2023/06/04 00:20:40;;;;;;;0.77;0.30;;;13.30;79.80;;;;;;4875554;29;20048;-70
2023/06/04 00:23:06;;;;;;;2.65;0.47;;;13.30;79.60;;;;;;4896529;29;20036;-71
2023/06/04 00:25:32;;;;;;;1.50;0.47;;;13.20;79.80;;;;;;4897225;29;20039;-71
2023/06/04 00:27:58;;;;;;;1.27;0.43;;;13.20;79.80;;;;;;4900112;29;20051;-71
2023/06/04 00:30:25;;;;;;;1.15;0.40;;;13.20;79.90;;;;;;4891346;29;20035;-70
2023/06/04 00:32:51;;;;;;;1.60;0.50;;;13.10;80.30;;;;;;4887152;29;20027;-70
2023/06/04 00:35:18;;;;;;;1.35;0.50;;;13.10;80.50;;;;;;4906880;29;20066;-71
2023/06/04 00:37:44;;;;;;;1.65;0.35;;;13.10;80.80;;;;;;4904520;29;20550;-70
2023/06/04 00:40:11;;;;;;;3.00;0.60;;;13.00;80.60;;;;;;4878827;29;20043;-71
2023/06/04 00:42:37;;;;;;;1.00;0.40;;;13.00;80.60;;;;;;4882991;29;20039;-70
2023/06/04 00:45:09;;;;;;;0.90;0.35;;;13.00;80.80;;;;;;4895674;29;20051;-70
2023/06/04 00:47:36;;;;;;;2.85;0.60;;;12.90;81.00;;;;;;4900302;29;20047;-69
2023/06/04 00:50:02;;;;;;;2.42;0.50;;;12.90;81.00;;;;;;4892700;29;20138;-70
2023/06/04 00:52:29;;;;;;;2.53;0.50;;;12.90;81.20;;;;;;4883326;29;20035;-70
2023/06/04 00:54:55;;;;;;;2.33;0.40;;;12.80;81.20;;;;;;4904426;29;20032;-71
2023/06/04 00:57:22;;;;;;;2.95;0.50;;;12.80;81.40;;;;;;4903844;29;20027;-71
2023/06/04 00:59:49;;;;;;;1.42;0.40;;;12.80;81.50;;;;;;4881452;29;20032;-69
2023/06/04 01:02:24;;;;;;;2.38;0.52;;;12.80;81.50;;;;;;4866572;29;20042;-70
2023/06/04 01:04:57;;;;;;;2.00;0.40;;;12.70;82.20;;;;;;4899166;29;20042;-69
2023/06/04 01:07:27;;;;;;;1.80;0.50;;;12.70;81.70;;;;;;4880457;29;20051;-70
2023/06/04 01:09:53;;;;;;;1.92;0.50;;;12.70;81.90;;;;;;4892824;29;20062;-71
2023/06/04 01:12:20;;;;;;;1.35;0.40;;;12.70;82.00;;;;;;4898726;29;20047;-71
2023/06/04 01:14:46;;;;;;;2.10;0.60;;;12.60;82.00;;;;;;4900983;29;20393;-72
2023/06/04 01:17:28;;;;;;;1.48;0.50;;;12.60;81.90;;;;;;4888810;29;20050;-70
2023/06/04 01:20:04;;;;;;;1.30;0.40;;;12.60;82.00;;;;;;4883078;29;20050;-71
2023/06/04 01:22:42;;;;;;;1.23;0.40;;;12.60;82.20;;;;;;4900486;29;20035;-71
2023/06/04 01:25:18;;;;;;;1.70;0.65;;;12.60;82.30;;;;;;4899640;29;20039;-71
2023/06/04 01:27:50;;;;;;;2.60;0.60;;;12.60;82.40;;;;;;4897658;29;20056;-72
2023/06/04 01:30:17;;;;;;;1.85;0.60;;;12.60;82.80;;;;;;4893476;29;20039;-72
2023/06/04 01:32:46;;;;;;;1.23;0.43;;;12.60;82.40;;;;;;4882713;29;20028;-71
2023/06/04 01:35:12;;;;;;;5.75;0.50;;;12.50;82.40;;;;;;4897172;29;20745;-72
2023/06/04 01:37:39;;;;;;;2.38;0.57;;;12.50;82.30;;;;;;4902058;29;20043;-72
2023/06/04 01:40:08;;;;;;;2.50;0.60;;;12.50;82.50;;;;;;4879975;29;20051;-73
2023/06/04 01:42:35;;;;;;;1.33;0.40;;;12.50;82.50;;;;;;4888477;29;20391;-73
2023/06/04 01:45:01;;;;;;;3.03;0.40;;;12.40;82.70;;;;;;4900681;29;20655;-71
2023/06/04 01:47:27;;;;;;;1.50;0.50;;;12.40;82.80;;;;;;4883215;29;20024;-72
2023/06/04 01:49:54;;;;;;;1.48;0.40;;;12.40;82.70;;;;;;4891178;29;20443;-72
2023/06/04 01:52:21;;;;;;;2.40;0.50;;;12.30;82.60;;;;;;4885760;29;20047;-73
2023/06/04 01:54:52;;;;;;;2.55;0.60;;;12.30;82.80;;;;;;4882167;29;20036;-71
2023/06/04 01:57:21;;;;;;;1.13;0.40;;;12.30;83.40;;;;;;4902874;28;20383;-72
2023/06/04 01:59:48;;;;;;;1.60;0.52;;;12.30;83.30;;;;;;4882829;29;20043;-71
2023/06/04 02:02:14;;;;;;;2.00;0.70;;;12.20;83.40;;;;;;4905985;29;20036;-71
2023/06/04 02:04:41;;;;;;;3.15;1.23;;;12.20;83.70;;;;;;4906992;29;20024;-72
2023/06/04 02:07:17;;;;;;;2.70;0.65;;;12.20;83.70;;;;;;4902398;29;20046;-71
2023/06/04 02:09:44;;;;;;;2.25;0.30;;;12.20;84.00;;;;;;4897854;29;20039;-71
2023/06/04 02:12:10;;;;;;;4.53;0.50;;;12.10;84.10;;;;;;4898248;29;20023;-71
2023/06/04 02:14:41;;;;;;;2.67;0.60;;;12.10;84.40;;;;;;4885802;29;20047;-72
2023/06/04 02:17:16;;;;;;;1.92;0.65;;;12.10;84.60;;;;;;4870653;29;20048;-72
2023/06/04 02:19:49;;;;;;;3.03;0.60;;;12.00;84.40;;;;;;4882609;29;20063;-70
2023/06/04 02:22:17;;;;;;;1.35;0.50;;;12.00;84.60;;;;;;4905101;29;20036;-71
2023/06/04 02:24:44;;;;;;;1.02;0.40;;;12.00;84.80;;;;;;4906751;29;20484;-71
2023/06/04 02:27:11;;;;;;;2.50;0.63;;;12.00;84.60;;;;;;4901318;29;20056;-71
2023/06/04 02:29:39;;;;;;;1.15;0.40;;;12.00;84.90;;;;;;4897213;29;20040;-71
2023/06/04 02:32:06;;;;;;;2.40;0.70;;;12.00;85.10;;;;;;4882718;29;20039;-69
2023/06/04 02:34:33;;;;;;;2.90;0.65;;;11.90;85.10;;;;;;4885589;29;20047;-68
2023/06/04 02:37:00;;;;;;;1.50;0.40;;;11.90;85.40;;;;;;4902573;29;20028;-72
2023/06/04 02:39:27;;;;;;;3.25;0.60;;;11.90;85.40;;;;;;4882841;29;20402;-72
2023/06/04 02:41:53;;;;;;;2.53;0.55;;;11.80;85.40;;;;;;4887571;29;20027;-68
2023/06/04 02:44:19;;;;;;;2.83;0.50;;;11.80;85.60;;;;;;4889143;29;20047;-69
2023/06/04 02:46:46;;;;;;;2.22;0.50;;;11.80;85.80;;;;;;4905176;29;23160;-70
2023/06/04 02:49:13;;;;;;;1.48;0.80;;;11.80;86.00;;;;;;4884760;29;20048;-70
2023/06/04 02:51:43;;;;;;;2.03;0.50;;;11.80;86.30;;;;;;4895964;29;20028;-70
2023/06/04 02:54:10;;;;;;;3.30;0.60;;;11.70;86.30;;;;;;4901064;29;20036;-69
2023/06/04 02:56:37;;;;;;;4.03;0.77;;;11.70;86.20;;;;;;4885637;29;20039;-71
2023/06/04 02:59:04;;;;;;;2.20;0.60;;;11.60;86.30;;;;;;4900995;29;20044;-71
2023/06/04 03:01:31;;;;;;;2.67;0.60;;;11.60;86.40;;;;;;4882759;29;20387;-70
2023/06/04 03:03:57;;;;;;;1.85;0.60;;;11.60;86.70;;;;;;4906224;29;20042;-69
2023/06/04 03:06:24;;;;;;;2.75;0.60;;;11.60;86.90;;;;;;4891273;29;20487;-71
2023/06/04 03:08:51;;;;;;;2.42;0.63;;;11.60;87.30;;;;;;4901893;29;20380;-71
2023/06/04 03:11:21;;;;;;;2.42;1.25;;;11.50;87.40;;;;;;4878106;29;20038;-72
2023/06/04 03:13:48;;;;;;;2.20;0.60;;;11.50;87.80;;;;;;4884591;29;20306;-71
2023/06/04 03:16:15;;;;;;;2.40;0.60;;;11.50;88.00;;;;;;4885592;29;20047;-71
2023/06/04 03:18:42;;;;;;;1.30;0.60;;;11.40;88.10;;;;;;4886075;29;20035;-71
2023/06/04 03:21:11;;;;;;;2.65;0.50;;;11.40;88.20;;;;;;4861665;29;20040;-70
2023/06/04 03:23:40;;;;;;;2.63;0.60;;;11.40;88.20;;;;;;4887723;29;20043;-70
2023/06/04 03:26:06;;;;;;;4.38;0.65;;;11.40;88.40;;;;;;4903933;29;20071;-71
2023/06/04 03:28:33;;;;;;;2.53;0.88;;;11.40;88.40;;;;;;4908267;29;20040;-70
2023/06/04 03:31:03;;;;;;;1.40;0.57;;;11.40;88.50;;;;;;4880210;29;20043;-71
2023/06/04 03:33:29;;;;;;;3.90;0.70;;;11.40;89.20;;;;;;4868495;29;20040;-69
2023/06/04 03:35:58;;;;;;;3.35;0.77;;;11.30;89.40;;;;;;4884699;29;20507;-70
2023/06/04 03:38:25;;;;;;;1.63;0.68;;;11.30;89.50;;;;;;4885279;29;20063;-70
2023/06/04 03:40:54;;;;;;;2.97;0.50;;;11.30;89.60;;;;;;4894869;29;20028;-70
2023/06/04 03:43:21;;;;;;;1.95;0.80;;;11.30;89.80;;;;;;4884335;29;20534;-70
2023/06/04 03:45:50;;;;;;;2.08;0.70;;;11.30;90.00;;;;;;4887104;29;20324;-70
2023/06/04 03:48:17;;;;;;;2.53;0.60;;;11.20;90.10;;;;;;4892433;29;20036;-71
2023/06/04 03:50:45;;;;;;;2.75;0.80;;;11.30;90.20;;;;;;4869119;29;20047;-70
2023/06/04 03:53:13;;;;;;;2.20;0.65;;;11.30;90.30;;;;;;4885518;29;20028;-71
2023/06/04 03:55:40;;;;;;;3.67;0.70;;;11.30;90.30;;;;;;4868026;29;20680;-70
2023/06/04 03:58:09;;;;;;;2.53;1.08;;;11.20;90.40;;;;;;4883999;29;20411;-70
2023/06/04 04:00:36;;;;;;;3.47;0.60;;;11.20;90.60;;;;;;4875985;29;20070;-70
2023/06/04 04:03:04;;;;;;;1.95;0.73;;;11.30;90.70;;;;;;4900692;29;20039;-70
2023/06/04 04:05:31;;;;;;;2.20;0.75;;;11.30;90.80;;;;;;4883271;29;20032;-70
2023/06/04 04:07:57;;;;;;;2.63;0.70;;;11.30;90.70;;;;;;4904360;29;20034;-70
2023/06/04 04:10:28;;;;;;;2.92;0.60;;;11.30;90.90;;;;;;4881039;29;20035;-70
2023/06/04 04:12:57;;;;;;;2.95;0.90;;;11.30;90.80;;;;;;4887931;29;20055;-69
2023/06/04 04:15:24;;;;;;;6.32;1.02;;;11.40;90.90;;;;;;4901068;29;20051;-71
2023/06/04 04:17:52;;;;;;;2.28;1.02;;;11.40;91.00;;;;;;4899230;29;20054;-70
2023/06/04 04:20:19;;;;;;;2.63;0.80;;;11.40;91.10;;;;;;4861677;29;20040;-71
2023/06/04 04:22:52;;;;;;;4.65;1.00;;;11.50;91.30;;;;;;4883711;29;20047;-70
2023/06/04 04:25:20;;;;;;;2.60;0.60;;;11.50;91.30;;;;;;4899460;29;20613;-70
2023/06/04 04:27:48;;;;;;;2.75;0.60;;;11.60;91.30;;;;;;4899207;29;20052;-70
2023/06/04 04:30:16;;;;;;;2.20;0.63;;;11.60;91.20;;;;;;4881802;29;23412;-71
2023/06/04 04:32:48;;;;;;;1.92;0.70;;;11.70;91.40;;;;;;4888308;29;20562;-69
2023/06/04 04:35:19;;;;;;;2.28;0.88;;;11.80;91.50;;;;;;4903125;29;20091;-70
2023/06/04 04:37:48;;;;;;;3.38;0.90;;;11.80;91.60;;;;;;4869386;29;20062;-71
2023/06/04 04:40:17;;;;;;;4.22;1.10;;;11.90;91.60;;;;;;4860180;29;20082;-70
2023/06/04 04:42:47;;;;;;;2.97;0.70;;;12.00;91.70;;;;;;4900003;29;20051;-70
2023/06/04 04:45:15;;;;;;;2.38;0.90;;;12.00;91.70;;;;;;4897300;28;20383;-70
2023/06/04 04:47:42;;;;;;;3.28;0.98;;;12.20;91.70;;;;;;4883498;29;20036;-71
2023/06/04 04:50:09;;;;;;;5.95;1.50;;;12.20;91.80;;;;;;4876661;29;20047;-70
2023/06/04 04:52:35;;;;;;;4.28;1.00;;;12.30;91.90;;;;;;4889122;29;20055;-70
2023/06/04 04:55:02;;;;;;;1.90;0.85;;;12.40;91.90;;;;;;4903878;29;20050;-69
2023/06/04 04:57:31;;;;;;;2.20;1.05;;;12.50;91.80;;;;;;4902460;29;20044;-72
2023/06/04 04:59:59;;;;;;;5.18;1.90;;;12.60;91.80;;;;;;4891081;29;20518;-71
2023/06/04 05:02:26;;;;;;;2.95;1.00;;;12.70;91.80;;;;;;4897410;29;20034;-71
2023/06/04 05:04:54;;;;;;;3.22;1.10;;;12.80;91.80;;;;;;4883852;29;20043;-71
2023/06/04 05:07:23;;;;;;;3.42;1.10;;;12.90;91.70;;;;;;4899652;29;20031;-72
2023/06/04 05:09:49;;;;;;;3.38;1.13;;;13.00;91.70;;;;;;4878240;29;20050;-70
2023/06/04 05:12:15;;;;;;;4.40;0.80;;;13.10;91.60;;;;;;4886787;29;20317;-71
2023/06/04 05:14:43;;;;;;;3.15;1.30;;;13.20;91.50;;;;;;4904203;29;20039;-71
2023/06/04 05:17:10;;;;;;;2.47;0.90;;;13.30;91.50;;;;;;4904886;29;20035;-72
2023/06/04 05:19:39;;;;;;;3.95;0.80;;;13.40;91.40;;;;;;4877310;29;20129;-71
2023/06/04 05:22:05;;;;;;;3.65;1.00;;;13.60;91.30;;;;;;4882865;29;21294;-72
2023/06/04 05:24:32;;;;;;;4.60;0.82;;;13.70;91.20;;;;;;4867023;29;20399;-72
2023/06/04 05:27:03;;;;;;;3.60;1.20;;;13.80;91.10;;;;;;4880889;29;20079;-72
2023/06/04 05:29:30;;;;;;;5.65;1.25;;;14.00;91.00;;;;;;4873533;29;20032;-70
2023/06/04 05:31:56;;;;;;;4.88;1.13;;;14.10;90.90;;;;;;4877564;29;20040;-72
2023/06/04 05:34:23;;;;;;;5.03;1.10;;;14.20;90.70;;;;;;4886896;29;20036;-74
2023/06/04 05:36:50;;;;;;;2.05;0.75;;;14.40;90.60;;;;;;4904778;29;20043;-73
2023/06/04 05:39:20;;;;;;;3.30;0.85;;;14.50;90.40;;;;;;4868151;29;20067;-73
2023/06/04 05:41:56;;;;;;;4.90;0.98;;;14.60;90.30;;;;;;4880551;29;20032;-74
2023/06/04 05:44:23;;;;;;;3.60;1.15;;;14.80;90.20;;;;;;4882522;29;20036;-74
2023/06/04 05:46:50;;;;;;;2.72;0.90;;;14.90;90.10;;;;;;4867742;29;20044;-74
2023/06/04 05:49:16;;;;;;;3.50;0.88;;;15.10;89.50;;;;;;4894679;29;20408;-74
2023/06/04 05:51:43;;;;;;;2.30;0.90;;;15.20;89.20;;;;;;4875610;29;20020;-73
2023/06/04 05:54:10;;;;;;;1.98;0.60;;;15.30;88.90;;;;;;4885874;29;20524;-71
2023/06/04 05:56:41;;;;;;;2.55;0.70;;;15.40;88.70;;;;;;4902644;29;20051;-71
2023/06/04 05:59:07;;;;;;;1.83;0.70;;;15.60;88.50;;;;;;4901719;29;20044;-71
2023/06/04 06:01:34;;;;;;;1.98;0.65;;;15.90;88.30;;;;;;4875705;29;20016;-70
2023/06/04 06:04:01;;;;;;;2.17;0.63;;;16.20;87.90;;;;;;4898155;29;20040;-72
2023/06/04 06:06:29;;;;;;;1.83;0.70;;;16.40;87.10;;;;;;4882193;29;20036;-71
2023/06/04 06:08:55;;;;;;;3.83;1.00;;;16.60;86.50;;;;;;4882892;29;20040;-71
2023/06/04 06:11:22;;;;;;;1.85;0.52;;;16.80;86.20;;;;;;4874759;29;20048;-70
2023/06/04 06:13:48;;;;;;;2.30;0.80;;;17.00;85.40;;;;;;4897214;29;20048;-70
2023/06/04 06:16:16;;;;;;;3.05;0.80;;;17.30;84.90;;;;;;4885750;29;20036;-71
2023/06/04 06:18:46;;;;;;;3.10;0.73;;;17.60;84.20;;;;;;4887252;29;20339;-71
2023/06/04 06:21:12;;;;;;;2.97;0.77;;;17.80;83.20;;;;;;4862582;29;20530;-70
2023/06/04 06:23:39;;;;;;;2.85;0.98;;;18.00;82.00;;;;;;4866856;29;20265;-71
2023/06/04 06:26:08;;;;;;;2.05;0.60;;;18.10;81.50;;;;;;4896740;29;20048;-72
2023/06/04 06:28:39;;;;;;;3.03;0.82;;;18.20;80.60;;;;;;4866247;29;20051;-70
2023/06/04 06:31:07;;;;;;;3.17;0.90;;;18.20;80.40;;;;;;4875274;29;20044;-71
2023/06/04 06:33:33;;;;;;;3.75;0.80;;;18.20;80.80;;;;;;4896957;29;20039;-71
2023/06/04 06:36:00;;;;;;;3.65;0.88;;;18.30;80.50;;;;;;4884286;29;20024;-70
2023/06/04 06:38:26;;;;;;;4.40;1.10;;;18.30;79.90;;;;;;4887934;29;20076;-71
2023/06/04 06:40:53;;;;;;;2.45;0.82;;;18.30;79.90;;;;;;4882593;29;21125;-71
2023/06/04 06:43:19;;;;;;;2.35;1.10;;;18.40;79.70;;;;;;4867086;29;20044;-72
2023/06/04 06:45:46;;;;;;;1.42;0.60;;;18.50;79.20;;;;;;4883636;29;20484;-74
2023/06/04 06:48:12;;;;;;;5.20;1.83;;;18.50;79.30;;;;;;4895494;29;20039;-73
2023/06/04 06:50:38;;;;;;;4.00;1.63;;;18.60;79.80;;;;;;4874092;29;20036;-74
2023/06/04 06:53:04;;;;;;;2.17;0.80;;;18.70;78.90;;;;;;4883333;29;20059;-75
2023/06/04 06:55:31;;;;;;;1.98;0.82;;;18.80;78.70;;;;;;4881039;29;20032;-71
2023/06/04 06:57:58;;;;;;;3.60;0.70;;;18.80;77.90;;;;;;4885567;29;20044;-73
2023/06/04 07:00:26;;;;;;;3.10;0.80;;;18.80;78.10;;;;;;4881332;29;20036;-70
2023/06/04 07:02:52;;;;;;;2.30;0.70;;;18.90;76.90;;;;;;4887614;29;20036;-71
2023/06/04 07:05:19;;;;;;;3.25;0.60;;;18.90;77.30;;;;;;4884721;29;20067;-69
2023/06/04 07:07:46;;;;;;;1.60;0.52;;;19.00;77.50;;;;;;4883605;29;20032;-70
2023/06/04 07:10:13;;;;;;;3.58;0.80;;;19.20;77.60;;;;;;4875205;29;20496;-70
2023/06/04 07:12:39;;;;;;;3.05;0.90;;;19.30;76.70;;;;;;4884039;29;20033;-70
2023/06/04 07:15:08;;;;;;;2.08;0.75;;;19.40;76.60;;;;;;4880652;29;20037;-71
2023/06/04 07:17:34;;;;;;;2.80;0.82;;;19.60;76.40;;;;;;4897187;29;20036;-70
2023/06/04 07:20:00;;;;;;;1.67;0.70;;;19.70;76.00;;;;;;4878025;29;20043;-69
2023/06/04 07:22:27;;;;;;;4.20;1.23;;;19.70;75.80;;;;;;4900873;29;20036;-71
2023/06/04 07:24:53;;;;;;;3.70;1.90;;;19.80;75.50;;;;;;4887179;29;20480;-69
2023/06/04 07:27:19;;;;;;;5.28;1.35;;;19.90;75.80;;;;;;4876655;29;20063;-70
2023/06/04 07:29:45;;;;;;;6.30;3.03;;;20.00;75.70;;;;;;4874984;29;20051;-66
2023/06/04 07:32:12;;;;;;;2.45;1.05;;;20.10;75.40;;;;;;4881810;29;20047;-71
2023/06/04 07:34:39;;;;;;;2.13;0.70;;;20.20;75.20;;;;;;4880116;29;20051;-69
2023/06/04 07:37:06;;;;;;;2.38;0.70;;;20.40;74.90;;;;;;4880090;29;20440;-69
2023/06/04 07:39:32;;;;;;;2.65;0.80;;;20.50;74.60;;;;;;4876835;29;20988;-67
2023/06/04 07:41:58;;;;;;;1.40;0.60;;;20.70;73.40;;;;;;4881924;29;20028;-71
2023/06/04 07:44:24;;;;;;;2.88;0.70;;;20.80;73.00;;;;;;4886682;29;20036;-71
2023/06/04 07:46:51;;;;;;;1.88;0.50;;;20.90;72.40;;;;;;4886321;29;20049;-69
2023/06/04 07:49:17;;;;;;;2.08;0.57;;;20.90;72.40;;;;;;4880178;29;20036;-70
2023/06/04 07:51:43;;;;;;;2.75;0.50;;;21.10;71.90;;;;;;4876803;29;20297;-69
2023/06/04 07:54:10;;;;;;;1.55;0.52;;;21.20;71.70;;;;;;4880748;29;20039;-69
2023/06/04 07:56:37;;;;;;;1.23;0.50;;;21.40;71.40;;;;;;4879887;29;20047;-69
2023/06/04 07:59:03;;;;;;;1.70;0.55;;;21.50;70.50;;;;;;4882595;29;20052;-71
2023/06/04 08:01:30;;;;;;;2.60;0.50;;;21.60;69.70;;;;;;4876018;29;20043;-70
2023/06/04 08:03:58;;;;;;;1.35;0.52;;;21.80;69.40;;;;;;4886143;29;20032;-71
2023/06/04 08:06:26;;;;;;;1.20;0.50;;;22.00;69.10;;;;;;4885098;29;20036;-70
2023/06/04 08:08:53;;;;;;;5.80;0.60;;;22.10;68.60;;;;;;4882856;29;23595;-71
2023/06/04 08:11:19;;;;;;;1.90;0.50;;;22.30;68.00;;;;;;4872761;29;20047;-71
2023/06/04 08:13:45;;;;;;;1.15;0.50;;;22.50;67.60;;;;;;4881113;29;20047;-70
2023/06/04 08:16:11;;;;;;;2.50;0.50;;;22.50;66.70;;;;;;4865002;29;20036;-70
2023/06/04 08:18:58;;;;;;;3.17;0.50;;;22.50;66.40;;;;;;4881575;29;20051;-71
2023/06/04 08:21:37;;;;;;;1.15;0.50;;;22.50;66.40;;;;;;4877800;29;20013;-65
2023/06/04 08:24:09;;;;;;;1.83;0.50;;;22.60;66.30;;;;;;4887661;29;21036;-68
2023/06/04 08:26:54;;;;;;;1.60;0.50;;;22.70;66.60;;;;;;4896680;29;21069;-68
2023/06/04 08:29:39;;;;;;;1.73;0.50;;;22.80;66.00;;;;;;4896142;29;20043;-66
2023/06/04 08:32:25;;;;;;;1.30;0.50;;;23.00;65.30;;;;;;4872260;29;20399;-68
2023/06/04 08:34:54;;;;;;;1.92;0.40;;;23.10;64.30;;;;;;4883221;29;20044;-67
2023/06/04 08:37:20;;;;;;;2.40;0.50;;;23.10;64.20;;;;;;4900812;29;20058;-67
2023/06/04 08:39:47;;;;;;;2.17;0.57;;;23.20;63.90;;;;;;4877490;29;20043;-68
2023/06/04 08:42:20;;;;;;;2.05;0.60;;;23.30;63.90;;;;;;4900980;29;20043;-69
2023/06/04 08:44:51;;;;;;;1.17;0.38;;;23.40;62.90;;;;;;4872905;29;20032;-70
2023/06/04 08:47:19;;;;;;;1.90;0.45;;;23.30;61.40;;;;;;4888796;29;20387;-70
2023/06/04 08:49:50;;;;;;;2.95;0.80;;;23.30;62.00;;;;;;4896772;29;20047;-69
2023/06/04 08:52:17;;;;;;;2.30;0.50;;;23.40;62.40;;;;;;4884279;29;20028;-69
2023/06/04 08:54:43;;;;;;;2.47;0.60;;;23.50;63.00;;;;;;4900646;29;20044;-70
2023/06/04 08:57:10;;;;;;;2.28;0.40;;;23.60;61.50;;;;;;4900653;29;20036;-68
2023/06/04 08:59:37;;;;;;;2.28;0.50;;;23.70;61.10;;;;;;4895453;28;20039;-67
2023/06/04 09:02:04;;;;;;;1.73;0.50;;;23.80;61.00;;;;;;4880691;29;20475;-68
2023/06/04 09:04:31;;;;;;;1.13;0.50;;;23.90;60.10;;;;;;4901462;29;20043;-68
2023/06/04 09:07:02;;;;;;;1.05;0.40;;;24.00;59.70;;;;;;4903966;29;20711;-69
2023/06/04 09:09:30;;;;;;;0.70;0.30;;;24.10;59.30;;;;;;4902120;29;20600;-69
2023/06/04 09:11:57;;;;;;;2.47;0.40;;;24.10;58.50;;;;;;4883310;29;20039;-67
2023/06/04 09:14:23;;;;;;;1.52;0.50;;;24.20;58.30;;;;;;4900787;29;20035;-68
2023/06/04 09:16:52;;;;;;;3.28;0.70;;;24.40;58.40;;;;;;4899547;29;20040;-68
2023/06/04 09:19:19;;;;;;;2.15;0.93;;;24.60;58.30;;;;;;4899570;29;20724;-68
2023/06/04 09:21:50;;;;;;;3.22;0.60;;;24.70;57.90;;;;;;4894441;29;20047;-67
2023/06/04 09:24:17;;;;;;;1.10;0.50;;;24.80;57.60;;;;;;4901170;29;20027;-68
2023/06/04 09:26:44;;;;;;;3.00;0.40;;;24.80;58.00;;;;;;4903027;29;20054;-68
2023/06/04 09:29:11;;;;;;;1.60;0.52;;;25.00;57.50;;;;;;4887556;29;20043;-68
2023/06/04 09:31:39;;;;;;;2.55;0.45;;;25.20;56.80;;;;;;4898186;29;20051;-68
2023/06/04 09:34:06;;;;;;;1.20;0.32;;;25.30;56.10;;;;;;4900144;29;20043;-68
2023/06/04 09:36:34;;;;;;;1.33;0.50;;;25.40;54.50;;;;;;4883712;29;20032;-68
2023/06/04 09:39:14;;;;;;;0.80;0.30;;;25.40;54.30;;;;;;4898409;29;20055;-68
2023/06/04 09:41:40;;;;;;;1.00;0.40;;;25.40;52.30;;;;;;4895226;29;20039;-70
2023/06/04 09:44:10;;;;;;;1.23;0.40;;;25.30;51.00;;;;;;4867688;29;20840;-68
2023/06/04 09:46:37;;;;;;;0.60;0.30;;;25.10;50.50;;;;;;4902887;29;20487;-68
2023/06/04 09:49:05;;;;;;;1.35;0.30;;;25.00;51.60;;;;;;4904308;29;20035;-67
2023/06/04 09:51:32;;;;;;;2.28;0.38;;;25.00;52.00;;;;;;4882500;29;20379;-68
2023/06/04 09:54:01;;;;;;;1.20;0.40;;;25.10;51.10;;;;;;4901219;29;20044;-67
2023/06/04 09:56:27;;;;;;;2.28;0.40;;;25.20;51.60;;;;;;4883510;29;20074;-72
2023/06/04 09:59:00;;;;;;;1.08;0.30;;;25.20;51.20;;;;;;4895885;29;20036;-69
2023/06/04 10:01:28;;;;;;;0.93;0.30;;;25.20;50.70;;;;;;4860353;29;20040;-68
2023/06/04 10:04:02;;;;;;;1.05;0.40;;;25.20;51.00;;;;;;4897330;29;20055;-68
2023/06/04 10:06:33;;;;;;;0.98;0.30;;;25.20;49.90;;;;;;4868287;29;20039;-68
2023/06/04 10:09:04;;;;;;;1.33;0.30;;;25.30;50.60;;;;;;4903316;29;20043;-69
2023/06/04 10:11:54;;;;;;;0.67;0.30;;;25.30;50.70;;;;;;4898491;29;20039;-69
2023/06/04 10:14:30;;;;;;;1.95;0.50;;;25.40;50.70;;;;;;4903424;29;20282;-69
2023/06/04 10:16:58;;;;;;;1.00;0.30;;;25.40;49.70;;;;;;4900318;29;20051;-67
2023/06/04 10:19:24;;;;;;;1.35;0.50;;;25.30;50.00;;;;;;4867957;29;20058;-67
2023/06/04 10:21:52;;;;;;;0.90;0.40;;;25.40;50.30;;;;;;4897217;29;20040;-68
2023/06/04 10:24:20;;;;;;;1.20;0.40;;;25.40;49.80;;;;;;4903413;29;20597;-68
2023/06/04 10:26:48;;;;;;;1.58;0.40;;;25.40;50.10;;;;;;4885921;29;20052;-68
2023/06/04 10:29:14;;;;;;;1.08;0.40;;;25.50;49.90;;;;;;4886884;29;20271;-68
2023/06/04 10:31:41;;;;;;;2.67;0.47;;;25.70;50.10;;;;;;4884569;29;20031;-71
2023/06/04 10:34:07;;;;;;;2.75;0.40;;;25.80;49.60;;;;;;4890376;29;20043;-69
2023/06/04 10:36:45;;;;;;;2.25;0.40;;;26.10;49.40;;;;;;4904313;29;20070;-70
2023/06/04 10:39:12;;;;;;;0.93;0.40;;;26.30;49.00;;;;;;4901201;29;20044;-67
2023/06/04 10:41:38;;;;;;;2.28;0.52;;;26.40;49.20;;;;;;4881073;29;20779;-69
2023/06/04 10:44:04;;;;;;;2.20;0.50;;;26.70;49.70;;;;;;4871214;29;20384;-69
2023/06/04 10:46:40;;;;;;;2.50;0.82;;;27.10;49.10;;;;;;4903405;29;20733;-69
2023/06/04 10:49:07;;;;;;;1.20;0.40;;;27.40;47.80;;;;;;4887095;29;20051;-69
2023/06/04 10:51:37;;;;;;;3.22;0.40;;;27.40;47.10;;;;;;4899780;29;20039;-68
2023/06/04 10:54:03;;;;;;;2.40;0.32;;;27.70;47.70;;;;;;4907906;29;20035;-70
2023/06/04 10:56:37;;;;;;;3.80;0.50;;;28.10;47.90;;;;;;4890563;29;20403;-69
2023/06/04 10:59:15;;;;;;;1.33;0.30;;;28.30;46.90;;;;;;4885303;29;20036;-67
2023/06/04 11:01:41;;;;;;;2.88;0.50;;;28.60;47.00;;;;;;4898038;29;20040;-68
2023/06/04 11:04:18;;;;;;;1.33;0.40;;;28.80;47.00;;;;;;4902598;29;20042;-70
2023/06/04 11:06:45;;;;;;;1.63;0.40;;;29.10;46.60;;;;;;4902690;29;20042;-70
2023/06/04 11:09:16;;;;;;;1.42;0.45;;;29.50;46.10;;;;;;4883921;29;20788;-69
2023/06/04 11:11:43;;;;;;;1.17;0.40;;;29.80;45.70;;;;;;4896141;29;20476;-69
2023/06/04 11:14:12;;;;;;;2.67;0.50;;;29.90;45.00;;;;;;4903879;29;20031;-67
2023/06/04 11:16:39;;;;;;;1.05;0.40;;;30.00;45.00;;;;;;4907443;29;20046;-69
2023/06/04 11:19:05;;;;;;;2.50;0.40;;;30.10;45.30;;;;;;4889568;29;20372;-69
2023/06/04 11:21:36;;;;;;;2.05;0.40;;;30.30;43.70;;;;;;4894836;29;20786;-68
2023/06/04 11:24:03;;;;;;;2.88;0.38;;;30.30;44.20;;;;;;4901272;29;20048;-70
2023/06/04 11:26:34;;;;;;;1.33;0.50;;;30.50;44.00;;;;;;4877969;29;20060;-68
2023/06/04 11:29:02;;;;;;;1.83;0.40;;;30.80;43.60;;;;;;4896444;29;20032;-69
2023/06/04 11:31:28;;;;;;;1.00;0.40;;;31.10;43.60;;;;;;4875994;29;20024;-68
2023/06/04 11:33:55;;;;;;;1.45;0.40;;;31.30;43.40;;;;;;4881907;29;21458;-69
2023/06/04 11:36:30;;;;;;;1.65;0.40;;;31.60;42.80;;;;;;4886760;29;21338;-69
2023/06/04 11:39:06;;;;;;;1.67;0.40;;;31.70;42.40;;;;;;4888979;29;20372;-69
2023/06/04 11:41:35;;;;;;;2.28;0.30;;;31.80;42.30;;;;;;4879192;29;20601;-69
2023/06/04 11:44:06;;;;;;;1.15;0.38;;;32.00;42.40;;;;;;4884531;29;20637;-69
2023/06/04 11:46:33;;;;;;;0.80;0.30;;;32.30;42.30;;;;;;4882963;29;20039;-69
2023/06/04 11:48:59;;;;;;;1.48;0.45;;;32.60;41.90;;;;;;4882391;29;20047;-68
2023/06/04 11:51:26;;;;;;;1.25;0.50;;;32.90;41.10;;;;;;4874451;29;20310;-70
2023/06/04 11:53:52;;;;;;;1.88;0.30;;;33.00;40.70;;;;;;4882927;29;20028;-68
2023/06/04 11:56:19;;;;;;;1.50;0.38;;;33.10;40.40;;;;;;4883395;29;20079;-69
2023/06/04 11:58:46;;;;;;;1.58;0.40;;;33.30;40.10;;;;;;4886642;29;20055;-69
2023/06/04 12:01:13;;;;;;;0.82;0.40;;;33.50;39.70;;;;;;4879102;29;20044;-70
2023/06/04 12:03:41;;;;;;;0.70;0.30;;;33.70;39.90;;;;;;4884030;29;20411;-68
2023/06/04 12:06:15;;;;;;;1.23;0.40;;;33.80;39.50;;;;;;4881133;29;20032;-69
2023/06/04 12:08:53;;;;;;;0.98;0.45;;;34.20;39.60;;;;;;4881199;29;20032;-68
2023/06/04 12:11:34;;;;;;;0.90;0.40;;;34.50;39.40;;;;;;4874169;29;20606;-69
2023/06/04 12:14:04;;;;;;;1.67;0.40;;;34.80;39.20;;;;;;4881566;29;20036;-68
2023/06/04 12:16:31;;;;;;;2.15;0.40;;;34.80;38.50;;;;;;4882796;29;20051;-69
2023/06/04 12:19:13;;;;;;;1.65;0.82;;;34.80;38.20;;;;;;4885852;29;20032;-69
2023/06/04 12:21:39;;;;;;;1.63;0.40;;;34.70;38.30;;;;;;4882254;29;20020;-70
2023/06/04 12:24:10;;;;;;;3.45;0.60;;;34.80;38.20;;;;;;4885719;29;20040;-68
2023/06/04 12:26:40;;;;;;;1.52;0.68;;;35.00;38.20;;;;;;4891051;29;20060;-69
2023/06/04 12:29:10;;;;;;;0.80;0.40;;;35.10;37.80;;;;;;4900790;29;20035;-69
2023/06/04 12:31:38;;;;;;;1.38;0.40;;;35.20;37.80;;;;;;4895395;29;20373;-69
2023/06/04 12:34:04;;;;;;;1.58;0.68;;;35.40;37.70;;;;;;4901013;29;20036;-69
2023/06/04 12:36:33;;;;;;;1.40;0.50;;;35.70;37.60;;;;;;4900432;29;20047;-68
2023/06/04 12:39:01;;;;;;;1.45;0.40;;;35.80;36.90;;;;;;4903828;29;20599;-69
2023/06/04 12:41:28;;;;;;;1.77;0.50;;;35.80;37.20;;;;;;4898021;29;20023;-69
2023/06/04 12:43:55;;;;;;;1.20;0.45;;;36.00;37.10;;;;;;4905101;29;20048;-69
2023/06/04 12:46:22;;;;;;;3.80;0.55;;;36.10;36.80;;;;;;4884968;29;20067;-69
2023/06/04 12:48:54;;;;;;;1.50;0.50;;;35.80;36.10;;;;;;4885022;29;20049;-69
2023/06/04 12:51:20;;;;;;;;;;;35.60;36.60;;;;;;4893970;29;20024;-69
2023/06/04 12:53:51;;;;;;;1.73;0.40;;;35.70;36.70;;;;;;4900423;29;20392;-69